createdAt,value
2018-07-16T00:01:50.076Z,3.80
2018-07-16T00:04:20.267Z,4.07
2018-07-16T00:06:48.349Z,3.70
2018-07-16T00:09:16.458Z,3.73
2018-07-16T00:11:44.507Z,3.50
2018-07-16T00:14:12.579Z,3.77
2018-07-16T00:16:40.779Z,3.83
2018-07-16T00:19:08.731Z,3.27
2018-07-16T00:21:37.403Z,4.53
2018-07-16T00:24:06.083Z,3.70
2018-07-16T00:26:34.887Z,3.83
2018-07-16T00:29:02.787Z,4.10
2018-07-16T00:31:31.491Z,3.60
2018-07-16T00:33:59.469Z,3.80
2018-07-16T00:36:27.348Z,3.73
2018-07-16T00:38:56.172Z,3.90
2018-07-16T00:41:24.634Z,4.37
2018-07-16T00:43:52.509Z,3.97
2018-07-16T00:46:20.505Z,3.60
2018-07-16T00:48:48.471Z,4.77
2018-07-16T00:51:16.458Z,4.10
2018-07-16T00:53:44.410Z,3.73
2018-07-16T00:56:12.386Z,3.90
2018-07-16T00:58:40.394Z,4.00
2018-07-16T01:01:08.633Z,4.73
2018-07-16T01:03:36.510Z,4.37
2018-07-16T01:06:04.549Z,4.17
2018-07-16T01:08:32.647Z,4.60
2018-07-16T01:11:00.616Z,4.60
2018-07-16T01:13:28.986Z,4.73
2018-07-16T01:15:57.599Z,4.77
2018-07-16T01:18:25.546Z,4.90
2018-07-16T01:20:53.619Z,4.20
2018-07-16T01:23:21.536Z,5.27
2018-07-16T01:25:49.843Z,4.70
2018-07-16T01:28:17.824Z,5.17
2018-07-16T01:30:46.363Z,5.13
2018-07-16T01:33:14.948Z,5.37
2018-07-16T01:35:43.367Z,5.17
2018-07-16T01:38:12.055Z,4.90
2018-07-16T01:40:40.159Z,4.43
2018-07-16T01:43:08.696Z,4.63
2018-07-16T01:45:37.419Z,4.47
2018-07-16T01:48:06.454Z,4.67
2018-07-16T01:50:34.469Z,4.67
2018-07-16T01:53:03.027Z,4.33
2018-07-16T01:55:30.894Z,4.27
2018-07-16T01:57:58.746Z,4.27
2018-07-16T02:00:26.906Z,4.33
2018-07-16T02:02:54.901Z,4.90
2018-07-16T02:05:23.431Z,4.63
2018-07-16T02:07:51.999Z,4.37
2018-07-16T02:10:20.257Z,4.70
2018-07-16T02:12:48.155Z,4.90
2018-07-16T02:15:16.042Z,4.80
2018-07-16T02:17:44.455Z,5.00
2018-07-16T02:20:12.611Z,5.10
2018-07-16T02:22:40.626Z,5.03
2018-07-16T02:25:09.758Z,4.93
2018-07-16T02:27:38.428Z,4.87
2018-07-16T02:30:06.378Z,4.87
2018-07-16T02:32:34.933Z,4.47
2018-07-16T02:35:04.137Z,4.77
2018-07-16T02:37:32.041Z,5.10
2018-07-16T02:39:59.826Z,4.03
2018-07-16T02:42:28.263Z,4.87
2018-07-16T02:44:58.234Z,5.20
2018-07-16T02:47:26.264Z,5.00
2018-07-16T02:49:54.447Z,5.17
2018-07-16T02:52:23.829Z,5.50
2018-07-16T02:54:51.852Z,4.33
2018-07-16T02:57:20.146Z,4.47
2018-07-16T02:59:50.059Z,5.37
2018-07-16T03:02:18.402Z,4.63
2018-07-16T03:04:47.898Z,5.00
2018-07-16T03:07:15.801Z,4.67
2018-07-16T03:09:44.042Z,4.63
2018-07-16T03:12:12.059Z,4.90
2018-07-16T03:14:40.947Z,4.90
2018-07-16T03:17:09.293Z,4.73
2018-07-16T03:19:37.747Z,5.13
2018-07-16T03:22:05.819Z,4.60
2018-07-16T03:24:34.330Z,4.80
2018-07-16T03:27:02.876Z,4.30
2018-07-16T03:29:30.926Z,4.93
2018-07-16T03:31:59.332Z,5.60
2018-07-16T03:34:28.750Z,4.77
2018-07-16T03:36:56.675Z,5.10
2018-07-16T03:39:24.647Z,4.60
2018-07-16T03:41:53.286Z,5.20
2018-07-16T03:44:21.415Z,4.90
2018-07-16T03:46:50.190Z,4.73
2018-07-16T03:49:18.738Z,4.20
2018-07-16T03:51:47.090Z,4.73
2018-07-16T03:54:15.732Z,4.60
2018-07-16T03:56:43.667Z,4.83
2018-07-16T03:59:12.222Z,4.37
2018-07-16T04:01:40.506Z,4.60
2018-07-16T04:04:08.420Z,4.10
2018-07-16T04:06:36.406Z,4.50
2018-07-16T04:09:05.179Z,4.20
2018-07-16T04:11:33.172Z,3.80
2018-07-16T04:14:01.106Z,3.80
2018-07-16T04:16:29.471Z,4.20
2018-07-16T04:18:57.448Z,3.70
2018-07-16T04:21:26.053Z,3.83
2018-07-16T04:23:54.008Z,4.23
2018-07-16T04:26:22.495Z,4.57
2018-07-16T04:28:51.193Z,4.40
2018-07-16T04:31:19.838Z,4.30
2018-07-16T04:33:47.807Z,4.63
2018-07-16T04:36:16.186Z,4.07
2018-07-16T04:38:44.690Z,4.70
2018-07-16T04:41:13.144Z,4.40
2018-07-16T04:43:41.140Z,4.30
2018-07-16T04:46:10.866Z,4.33
2018-07-16T04:48:39.378Z,4.87
2018-07-16T04:51:07.467Z,4.70
2018-07-16T04:53:36.206Z,4.85
2018-07-16T04:56:04.845Z,4.60
2018-07-16T04:58:32.931Z,4.55
2018-07-16T05:01:01.773Z,4.87
2018-07-16T05:03:29.733Z,4.83
2018-07-16T05:05:57.928Z,4.80
2018-07-16T05:08:25.895Z,5.33
2018-07-16T05:10:53.853Z,4.92
2018-07-16T05:13:22.427Z,5.33
2018-07-16T05:15:50.416Z,4.78
2018-07-16T05:18:18.375Z,4.80
2018-07-16T05:20:46.296Z,4.55
2018-07-16T05:23:14.171Z,5.00
2018-07-16T05:25:42.644Z,5.28
2018-07-16T05:28:11.339Z,5.17
2018-07-16T05:30:39.991Z,5.55
2018-07-16T05:33:07.903Z,5.50
2018-07-16T05:35:36.451Z,5.12
2018-07-16T05:38:04.359Z,5.45
2018-07-16T05:40:32.342Z,5.42
2018-07-16T05:43:00.259Z,5.62
2018-07-16T05:45:29.338Z,5.80
2018-07-16T05:47:57.670Z,5.12
2018-07-16T05:50:28.100Z,5.30
2018-07-16T05:53:01.579Z,5.65
2018-07-16T05:55:36.546Z,6.35
2018-07-16T05:58:13.161Z,5.80
2018-07-16T06:00:41.792Z,6.35
2018-07-16T06:03:10.443Z,5.50
2018-07-16T06:05:38.513Z,5.97
2018-07-16T06:08:07.127Z,6.12
2018-07-16T06:10:36.298Z,6.05
2018-07-16T06:13:04.368Z,5.67
2018-07-16T06:15:32.702Z,6.00
2018-07-16T06:18:01.720Z,6.22
2018-07-16T06:20:29.691Z,5.85
2018-07-16T06:22:57.551Z,6.15
2018-07-16T06:25:26.091Z,5.65
2018-07-16T06:27:54.713Z,6.53
2018-07-16T06:30:22.643Z,5.80
2018-07-16T06:32:50.584Z,6.37
2018-07-16T06:35:18.440Z,6.67
2018-07-16T06:37:47.205Z,6.22
2018-07-16T06:40:15.183Z,6.25
2018-07-16T06:42:43.087Z,6.20
2018-07-16T06:45:11.180Z,6.25
2018-07-16T06:47:40.187Z,6.08
2018-07-16T06:50:08.451Z,6.40
2018-07-16T06:52:37.010Z,6.10
2018-07-16T06:57:57.148Z,6.25
2018-07-16T07:00:27.371Z,6.67
2018-07-16T07:02:56.091Z,6.70
2018-07-16T07:05:25.980Z,6.17
2018-07-16T07:18:26.960Z,6.08
2018-07-16T07:20:55.841Z,5.80
2018-07-16T07:23:23.769Z,5.85
2018-07-16T07:25:51.703Z,5.80
2018-07-16T07:28:19.607Z,6.60
2018-07-16T07:30:48.498Z,5.70
2018-07-16T07:33:16.807Z,6.33
2018-07-16T07:35:45.938Z,6.00
2018-07-16T07:38:15.581Z,5.85
2018-07-16T07:40:54.126Z,5.90
2018-07-16T07:43:31.663Z,6.45
2018-07-16T08:15:40.221Z,5.90
2018-07-16T08:18:14.381Z,5.40
2018-07-16T08:20:42.951Z,5.35
2018-07-16T08:32:56.423Z,5.20
2018-07-16T08:35:25.330Z,5.47
2018-07-16T08:37:53.354Z,5.22
2018-07-16T08:40:21.860Z,4.87
2018-07-16T08:42:49.983Z,5.37
2018-07-16T08:45:19.287Z,5.00
2018-07-16T08:47:47.347Z,5.17
2018-07-16T08:50:15.445Z,5.67
2018-07-16T08:52:43.552Z,5.00
2018-07-16T08:55:12.178Z,4.78
2018-07-16T08:57:44.160Z,4.37
2018-07-16T09:00:13.455Z,5.40
2018-07-16T09:02:41.696Z,4.42
2018-07-16T09:05:10.267Z,4.60
2018-07-16T09:07:38.783Z,4.58
2018-07-16T09:10:06.916Z,4.80
2018-07-16T09:12:35.381Z,5.10
2018-07-16T09:15:03.355Z,5.03
2018-07-16T09:17:31.703Z,4.50
2018-07-16T09:20:00.324Z,5.95
2018-07-16T09:22:28.337Z,5.03
2018-07-16T09:24:56.653Z,4.95
2018-07-16T09:27:24.640Z,5.45
2018-07-16T09:29:53.522Z,5.05
2018-07-16T09:32:22.245Z,4.95
2018-07-16T09:34:50.945Z,4.80
2018-07-16T09:37:19.033Z,4.85
2018-07-16T09:39:47.267Z,5.08
2018-07-16T09:42:17.210Z,4.72
2018-07-16T09:44:45.381Z,5.05
2018-07-16T09:47:13.503Z,4.35
2018-07-16T09:49:41.548Z,4.60
2018-07-16T09:52:17.314Z,6.65
2018-07-16T09:54:45.623Z,4.83
2018-07-16T09:57:15.216Z,4.67
2018-07-16T09:59:43.143Z,4.50
2018-07-16T10:02:17.586Z,5.53
2018-07-16T10:04:49.576Z,4.17
2018-07-16T10:07:17.626Z,4.35
2018-07-16T10:09:45.835Z,4.65
2018-07-16T10:12:14.431Z,4.75
2018-07-16T10:14:56.569Z,4.40
2018-07-16T10:18:03.973Z,4.37
2018-07-16T10:20:50.363Z,4.47
2018-07-16T10:26:23.465Z,4.28
2018-07-16T10:28:51.376Z,4.17
2018-07-16T10:50:34.345Z,4.60
2018-07-16T10:53:04.500Z,4.62
2018-07-16T10:56:07.531Z,4.37
2018-07-16T10:58:44.492Z,4.03
2018-07-16T11:01:22.850Z,4.30
2018-07-16T11:04:10.153Z,4.33
2018-07-16T11:43:00.929Z,3.77
2018-07-16T11:45:29.142Z,3.75
2018-07-16T11:47:57.947Z,3.70
2018-07-16T11:50:26.569Z,4.00
2018-07-16T11:52:55.276Z,4.00
2018-07-16T11:55:23.675Z,3.83
2018-07-16T11:57:52.325Z,3.90
2018-07-16T12:00:20.574Z,3.42
2018-07-16T12:02:49.135Z,3.60
2018-07-16T12:05:17.776Z,3.77
2018-07-16T12:07:45.684Z,3.75
2018-07-16T12:10:13.599Z,4.45
2018-07-16T12:12:42.088Z,3.55
2018-07-16T12:15:11.027Z,3.65
2018-07-16T12:17:38.998Z,3.95
2018-07-16T12:20:07.072Z,3.90
2018-07-16T12:22:35.078Z,4.50
2018-07-16T12:25:04.111Z,3.80
2018-07-16T12:27:34.274Z,3.33
2018-07-16T12:30:02.484Z,3.62
2018-07-16T12:32:30.626Z,3.98
2018-07-16T12:35:00.458Z,3.58
2018-07-16T12:50:28.630Z,3.65
2018-07-16T12:52:56.854Z,4.70
2018-07-16T12:55:26.057Z,4.00
2018-07-16T12:57:55.235Z,3.47
2018-07-16T13:00:23.245Z,3.67
2018-07-16T13:02:51.090Z,3.85
2018-07-16T13:05:19.784Z,4.40
2018-07-16T13:07:49.160Z,4.05
2018-07-16T13:10:17.831Z,3.98
2018-07-16T13:12:45.945Z,4.37
2018-07-16T13:15:14.321Z,4.33
2018-07-16T13:17:43.343Z,4.60
2018-07-16T13:20:11.586Z,4.45
2018-07-16T13:22:39.640Z,4.37
2018-07-16T13:25:07.724Z,4.78
2018-07-16T13:27:36.005Z,4.62
2018-07-16T13:30:04.105Z,4.85
2018-07-16T13:32:32.113Z,5.00
2018-07-16T13:35:00.869Z,4.90
2018-07-16T13:37:29.388Z,4.45
2018-07-16T13:39:57.951Z,4.95
2018-07-16T13:42:25.816Z,4.72
2018-07-16T13:44:54.384Z,4.58
2018-07-16T13:47:22.379Z,4.35
2018-07-16T13:49:50.442Z,4.40
2018-07-16T13:52:19.049Z,4.67
2018-07-16T13:54:47.091Z,4.47
2018-07-16T13:57:15.155Z,4.33
2018-07-16T13:59:44.684Z,4.58
2018-07-16T14:02:12.919Z,4.47
2018-07-16T14:04:40.819Z,4.60
2018-07-16T14:07:09.179Z,4.80
2018-07-16T14:09:38.191Z,4.72
2018-07-16T14:31:38.260Z,4.47
2018-07-16T14:34:06.408Z,4.03
2018-07-16T14:36:35.764Z,3.77
2018-07-16T14:39:04.562Z,3.98
2018-07-16T14:41:37.461Z,3.80
2018-07-16T14:44:07.345Z,4.08
2018-07-16T14:46:37.348Z,4.35
2018-07-16T14:49:05.956Z,4.22
2018-07-16T14:51:34.305Z,4.67
2018-07-16T14:54:04.223Z,4.60
2018-07-16T14:56:33.464Z,4.00
2018-07-16T14:59:03.924Z,4.53
2018-07-16T15:01:32.279Z,4.95
2018-07-16T15:04:00.618Z,4.60
2018-07-16T15:06:31.498Z,4.67
2018-07-16T15:08:59.775Z,4.72
2018-07-16T15:11:30.411Z,5.00
2018-07-16T15:14:01.066Z,4.72
2018-07-16T15:16:32.039Z,4.72
2018-07-16T15:19:00.093Z,4.45
2018-07-16T15:21:33.883Z,4.20
2018-07-16T15:24:02.028Z,4.60
2018-07-16T15:26:31.281Z,4.70
2018-07-16T15:29:01.867Z,4.20
2018-07-16T15:38:20.235Z,4.42
2018-07-16T15:40:49.292Z,4.60
2018-07-16T15:43:24.104Z,4.05
2018-07-16T15:45:59.810Z,4.40
2018-07-16T15:48:28.821Z,4.30
2018-07-16T15:50:57.076Z,5.15
2018-07-16T15:53:25.637Z,4.90
2018-07-16T15:55:53.703Z,4.42
2018-07-16T15:58:22.600Z,5.03
2018-07-16T16:00:53.144Z,4.67
2018-07-16T16:03:21.947Z,4.08
2018-07-16T16:05:50.517Z,4.15
2018-07-16T16:08:20.023Z,4.65
2018-07-16T16:10:53.556Z,4.33
2018-07-16T16:13:52.932Z,4.22
2018-07-16T16:16:47.206Z,4.40
2018-07-16T16:19:17.019Z,4.47
2018-07-16T16:21:45.230Z,4.15
2018-07-16T16:24:13.861Z,4.03
2018-07-16T16:26:52.250Z,4.10
2018-07-16T16:38:07.609Z,4.22
2018-07-16T16:45:47.702Z,5.05
2018-07-16T16:48:20.158Z,4.47
2018-07-16T16:50:59.111Z,4.70
2018-07-16T17:49:07.765Z,4.65
2018-07-16T17:51:44.797Z,5.62
2018-07-16T17:57:21.545Z,6.60
2018-07-16T18:00:13.203Z,6.80
2018-07-16T18:02:47.816Z,6.97
2018-07-16T18:05:29.061Z,7.05
2018-07-16T18:07:58.932Z,7.03
2018-07-16T18:10:28.309Z,6.70
2018-07-16T18:13:20.414Z,7.40
2018-07-16T18:16:05.562Z,6.83
2018-07-16T18:18:41.317Z,7.20
2018-07-16T18:21:10.153Z,6.87
2018-07-16T18:23:38.603Z,7.55
2018-07-16T18:26:06.319Z,7.80
2018-07-16T18:28:34.395Z,7.78
2018-07-16T18:31:03.220Z,7.83
2018-07-16T18:33:31.356Z,8.23
2018-07-16T18:36:02.790Z,7.75
2018-07-16T18:38:32.170Z,8.50
2018-07-16T18:41:00.453Z,7.60
2018-07-16T18:43:28.329Z,8.07
2018-07-16T18:45:56.438Z,7.33
2018-07-16T18:48:24.323Z,7.72
2018-07-16T18:50:52.512Z,8.05
2018-07-16T18:53:20.685Z,8.33
2018-07-16T18:55:54.890Z,7.85
2018-07-16T18:58:26.776Z,7.83
2018-07-16T19:00:55.230Z,8.03
2018-07-16T19:03:24.328Z,8.38
2018-07-16T19:05:52.717Z,6.35
2018-07-16T19:08:44.647Z,6.40
2018-07-16T19:11:22.879Z,7.58
2018-07-16T19:13:52.031Z,7.37
2018-07-16T19:16:28.118Z,8.05
2018-07-16T19:35:34.005Z,6.20
2018-07-16T19:47:55.808Z,5.67
2018-07-16T19:51:03.141Z,13.47
2018-07-16T19:57:11.570Z,4.73
2018-07-16T19:59:48.761Z,4.10
2018-07-16T20:05:26.940Z,4.23
2018-07-16T20:08:42.900Z,4.10
2018-07-16T21:00:16.040Z,4.10
2018-07-16T21:02:43.872Z,4.17
2018-07-16T21:05:11.659Z,4.40
2018-07-16T21:07:39.437Z,3.87
2018-07-16T21:10:07.567Z,4.30
2018-07-16T21:12:36.961Z,4.17
2018-07-16T21:15:04.868Z,4.10
2018-07-16T21:17:32.688Z,4.50
2018-07-16T21:20:00.590Z,4.40
2018-07-16T21:22:30.464Z,4.60
2018-07-16T21:24:59.053Z,4.50
2018-07-16T21:27:26.763Z,5.00
2018-07-16T21:29:55.853Z,5.70
2018-07-16T21:36:26.789Z,4.07
2018-07-16T21:42:20.139Z,4.60
2018-07-16T21:45:30.183Z,5.10
2018-07-16T21:48:14.828Z,5.33
2018-07-16T21:50:49.160Z,5.70
2018-07-16T21:53:53.155Z,4.93
2018-07-16T21:56:43.250Z,4.60
2018-07-16T21:59:22.414Z,4.70
2018-07-16T22:15:30.946Z,5.07
2018-07-16T22:18:47.725Z,5.00
2018-07-16T22:21:34.651Z,4.70
2018-07-16T22:24:31.165Z,5.43
2018-07-16T22:30:31.444Z,5.50
2018-07-16T22:33:26.278Z,5.07
2018-07-16T22:35:59.829Z,5.10
2018-07-16T22:39:03.274Z,5.60
2018-07-16T22:41:50.180Z,5.03
2018-07-16T22:44:31.215Z,5.10
2018-07-16T22:47:03.662Z,5.83
2018-07-16T22:50:07.446Z,6.40
2018-07-16T22:53:01.233Z,6.17
2018-07-16T22:58:49.856Z,6.50
2018-07-16T23:01:38.144Z,6.40
2018-07-16T23:04:18.375Z,6.57
2018-07-16T23:06:58.043Z,6.50
2018-07-16T23:16:22.710Z,6.80
2018-07-16T23:18:56.661Z,6.13
2018-07-16T23:21:31.510Z,6.23
2018-07-16T23:24:12.851Z,7.07
2018-07-16T23:27:01.634Z,6.37
2018-07-16T23:42:50.576Z,6.47
2018-07-16T23:48:25.275Z,6.93
2018-07-16T23:51:03.978Z,6.80
2018-07-16T23:53:37.071Z,7.00
2018-07-16T23:56:04.798Z,7.07
2018-07-16T23:58:32.796Z,7.47
